sensor_id;sensor_type;location;lat;lon;timestamp;temperature;humidity
30134;DHT22;16946;49.984;10.672;2023-09-18T00:00:08;17.60;99.90
30134;DHT22;16946;49.984;10.672;2023-09-18T00:00:46;17.60;99.90
30134;DHT22;16946;49.984;10.672;2023-09-18T00:01:16;17.60;99.90
30134;DHT22;16946;49.984;10.672;2023-09-18T00:01:50;17.60;99.90
30134;DHT22;16946;49.984;10.672;2023-09-18T00:02:20;17.70;99.90
30134;DHT22;16946;49.984;10.672;2023-09-18T00:02:51;17.70;99.90
30134;DHT22;16946;49.984;10.672;2023-09-18T00:03:22;17.70;99.90
30134;DHT22;16946;49.984;10.672;2023-09-18T00:03:54;17.60;99.90
30134;DHT22;16946;49.984;10.672;2023-09-18T00:04:25;17.60;99.90
30134;DHT22;16946;49.984;10.672;2023-09-18T00:04:55;17.60;99.90
30134;DHT22;16946;49.984;10.672;2023-09-18T00:05:26;17.60;99.90
30134;DHT22;16946;49.984;10.672;2023-09-18T00:05:58;17.60;99.90
30134;DHT22;16946;49.984;10.672;2023-09-18T00:06:29;17.70;99.90
30134;DHT22;16946;49.984;10.672;2023-09-18T00:07:00;17.70;99.90
30134;DHT22;16946;49.984;10.672;2023-09-18T00:07:30;17.70;99.90
30134;DHT22;16946;49.984;10.672;2023-09-18T00:08:01;17.70;99.90
30134;DHT22;16946;49.984;10.672;2023-09-18T00:08:34;17.60;99.90
30134;DHT22;16946;49.984;10.672;2023-09-18T00:09:05;17.60;99.90
30134;DHT22;16946;49.984;10.672;2023-09-18T00:09:41;17.50;99.90
30134;DHT22;16946;49.984;10.672;2023-09-18T00:10:12;17.40;99.90
30134;DHT22;16946;49.984;10.672;2023-09-18T00:10:48;17.40;99.90
30134;DHT22;16946;49.984;10.672;2023-09-18T00:11:19;17.30;99.90
30134;DHT22;16946;49.984;10.672;2023-09-18T00:11:50;17.30;99.90
30134;DHT22;16946;49.984;10.672;2023-09-18T00:12:20;17.30;99.90
30134;DHT22;16946;49.984;10.672;2023-09-18T00:12:51;17.30;99.90
30134;DHT22;16946;49.984;10.672;2023-09-18T00:13:22;17.20;99.90
30134;DHT22;16946;49.984;10.672;2023-09-18T00:13:52;17.20;99.90
30134;DHT22;16946;49.984;10.672;2023-09-18T00:14:23;17.20;99.90
30134;DHT22;16946;49.984;10.672;2023-09-18T00:14:54;17.20;99.90
30134;DHT22;16946;49.984;10.672;2023-09-18T00:15:24;17.20;99.90
30134;DHT22;16946;49.984;10.672;2023-09-18T00:15:55;17.10;99.90
30134;DHT22;16946;49.984;10.672;2023-09-18T00:16:26;17.20;99.90
30134;DHT22;16946;49.984;10.672;2023-09-18T00:16:57;17.20;99.90
30134;DHT22;16946;49.984;10.672;2023-09-18T00:17:28;17.10;99.90
30134;DHT22;16946;49.984;10.672;2023-09-18T00:17:58;17.10;99.90
30134;DHT22;16946;49.984;10.672;2023-09-18T00:18:29;17.10;99.90
30134;DHT22;16946;49.984;10.672;2023-09-18T00:18:59;17.10;99.90
30134;DHT22;16946;49.984;10.672;2023-09-18T00:19:30;17.10;99.90
30134;DHT22;16946;49.984;10.672;2023-09-18T00:20:03;17.10;99.90
30134;DHT22;16946;49.984;10.672;2023-09-18T00:20:36;17.10;99.90
30134;DHT22;16946;49.984;10.672;2023-09-18T00:21:08;17.10;99.90
30134;DHT22;16946;49.984;10.672;2023-09-18T00:21:43;17.10;99.90
30134;DHT22;16946;49.984;10.672;2023-09-18T00:22:13;17.10;99.90
30134;DHT22;16946;49.984;10.672;2023-09-18T00:22:44;17.10;99.90
30134;DHT22;16946;49.984;10.672;2023-09-18T00:23:15;17.10;99.90
30134;DHT22;16946;49.984;10.672;2023-09-18T00:23:46;17.10;99.90
30134;DHT22;16946;49.984;10.672;2023-09-18T00:24:16;17.10;99.90
30134;DHT22;16946;49.984;10.672;2023-09-18T00:24:47;17.00;99.90
30134;DHT22;16946;49.984;10.672;2023-09-18T00:25:18;17.00;99.90
30134;DHT22;16946;49.984;10.672;2023-09-18T00:25:49;17.00;99.90
30134;DHT22;16946;49.984;10.672;2023-09-18T00:26:19;17.00;99.90
30134;DHT22;16946;49.984;10.672;2023-09-18T00:26:49;17.00;99.90
30134;DHT22;16946;49.984;10.672;2023-09-18T00:27:23;17.00;99.90
30134;DHT22;16946;49.984;10.672;2023-09-18T00:27:53;17.10;99.90
30134;DHT22;16946;49.984;10.672;2023-09-18T00:28:24;17.20;99.90
30134;DHT22;16946;49.984;10.672;2023-09-18T00:28:54;17.30;99.90
30134;DHT22;16946;49.984;10.672;2023-09-18T00:29:25;17.40;99.90
30134;DHT22;16946;49.984;10.672;2023-09-18T00:29:55;17.40;99.90
30134;DHT22;16946;49.984;10.672;2023-09-18T00:30:26;17.50;99.90
30134;DHT22;16946;49.984;10.672;2023-09-18T00:30:56;17.50;99.90
30134;DHT22;16946;49.984;10.672;2023-09-18T00:31:28;17.60;99.90
30134;DHT22;16946;49.984;10.672;2023-09-18T00:31:58;17.70;99.90
30134;DHT22;16946;49.984;10.672;2023-09-18T00:32:29;17.70;99.90
30134;DHT22;16946;49.984;10.672;2023-09-18T00:33:00;17.70;99.90
30134;DHT22;16946;49.984;10.672;2023-09-18T00:33:31;17.80;99.90
30134;DHT22;16946;49.984;10.672;2023-09-18T00:34:01;17.80;99.90
30134;DHT22;16946;49.984;10.672;2023-09-18T00:34:32;17.90;99.90
30134;DHT22;16946;49.984;10.672;2023-09-18T00:35:02;17.90;99.90
30134;DHT22;16946;49.984;10.672;2023-09-18T00:35:33;17.90;99.90
30134;DHT22;16946;49.984;10.672;2023-09-18T00:36:04;17.90;99.90
30134;DHT22;16946;49.984;10.672;2023-09-18T00:36:34;17.80;99.90
30134;DHT22;16946;49.984;10.672;2023-09-18T00:37:05;17.70;99.90
30134;DHT22;16946;49.984;10.672;2023-09-18T00:37:35;17.70;99.90
30134;DHT22;16946;49.984;10.672;2023-09-18T00:38:07;17.70;99.90
30134;DHT22;16946;49.984;10.672;2023-09-18T00:38:37;17.70;99.90
30134;DHT22;16946;49.984;10.672;2023-09-18T00:39:08;17.70;99.90
30134;DHT22;16946;49.984;10.672;2023-09-18T00:39:39;17.70;99.90
30134;DHT22;16946;49.984;10.672;2023-09-18T00:40:09;17.70;99.90
30134;DHT22;16946;49.984;10.672;2023-09-18T00:40:41;17.70;99.90
30134;DHT22;16946;49.984;10.672;2023-09-18T00:41:12;17.70;99.90
30134;DHT22;16946;49.984;10.672;2023-09-18T00:41:42;17.80;99.90
30134;DHT22;16946;49.984;10.672;2023-09-18T00:42:14;17.80;99.90
30134;DHT22;16946;49.984;10.672;2023-09-18T00:42:46;17.80;99.90
30134;DHT22;16946;49.984;10.672;2023-09-18T00:43:16;17.90;99.90
30134;DHT22;16946;49.984;10.672;2023-09-18T00:43:48;17.90;99.90
30134;DHT22;16946;49.984;10.672;2023-09-18T00:44:18;17.90;99.90
30134;DHT22;16946;49.984;10.672;2023-09-18T00:44:49;17.90;99.90
30134;DHT22;16946;49.984;10.672;2023-09-18T00:45:21;17.90;99.90
30134;DHT22;16946;49.984;10.672;2023-09-18T00:45:51;17.90;99.90
30134;DHT22;16946;49.984;10.672;2023-09-18T00:46:22;17.90;99.90
30134;DHT22;16946;49.984;10.672;2023-09-18T00:46:53;17.90;99.90
30134;DHT22;16946;49.984;10.672;2023-09-18T00:47:26;17.90;99.90
30134;DHT22;16946;49.984;10.672;2023-09-18T00:47:56;18.00;99.90
30134;DHT22;16946;49.984;10.672;2023-09-18T00:48:27;18.00;99.90
30134;DHT22;16946;49.984;10.672;2023-09-18T00:48:58;18.00;99.90
30134;DHT22;16946;49.984;10.672;2023-09-18T00:49:29;18.00;99.90
30134;DHT22;16946;49.984;10.672;2023-09-18T00:50:01;18.00;99.90
30134;DHT22;16946;49.984;10.672;2023-09-18T00:50:31;18.00;99.90
30134;DHT22;16946;49.984;10.672;2023-09-18T00:51:02;17.90;99.90
30134;DHT22;16946;49.984;10.672;2023-09-18T00:51:33;17.90;99.90
30134;DHT22;16946;49.984;10.672;2023-09-18T00:52:04;17.90;99.90
30134;DHT22;16946;49.984;10.672;2023-09-18T00:52:35;17.80;99.90
30134;DHT22;16946;49.984;10.672;2023-09-18T00:53:07;17.80;99.90
30134;DHT22;16946;49.984;10.672;2023-09-18T00:53:43;17.80;99.90
30134;DHT22;16946;49.984;10.672;2023-09-18T00:54:16;17.80;99.90
30134;DHT22;16946;49.984;10.672;2023-09-18T00:54:48;17.80;99.90
30134;DHT22;16946;49.984;10.672;2023-09-18T00:55:19;17.80;99.90
30134;DHT22;16946;49.984;10.672;2023-09-18T00:55:55;17.80;99.90
30134;DHT22;16946;49.984;10.672;2023-09-18T00:56:26;17.80;99.90
30134;DHT22;16946;49.984;10.672;2023-09-18T00:56:57;17.80;99.90
30134;DHT22;16946;49.984;10.672;2023-09-18T00:57:28;17.80;99.90
30134;DHT22;16946;49.984;10.672;2023-09-18T00:57:59;17.70;99.90
30134;DHT22;16946;49.984;10.672;2023-09-18T00:58:30;17.80;99.90
30134;DHT22;16946;49.984;10.672;2023-09-18T00:59:01;17.70;99.90
30134;DHT22;16946;49.984;10.672;2023-09-18T00:59:33;17.70;99.90
30134;DHT22;16946;49.984;10.672;2023-09-18T01:00:05;17.70;99.90
30134;DHT22;16946;49.984;10.672;2023-09-18T01:00:36;17.80;99.90
30134;DHT22;16946;49.984;10.672;2023-09-18T01:01:07;17.80;99.90
30134;DHT22;16946;49.984;10.672;2023-09-18T01:01:40;17.80;99.90
30134;DHT22;16946;49.984;10.672;2023-09-18T01:02:12;17.70;99.90
30134;DHT22;16946;49.984;10.672;2023-09-18T01:02:44;17.70;99.90
30134;DHT22;16946;49.984;10.672;2023-09-18T01:03:15;17.70;99.90
30134;DHT22;16946;49.984;10.672;2023-09-18T01:03:50;17.70;99.90
30134;DHT22;16946;49.984;10.672;2023-09-18T01:04:22;17.70;99.90
30134;DHT22;16946;49.984;10.672;2023-09-18T01:04:53;17.70;99.90
30134;DHT22;16946;49.984;10.672;2023-09-18T01:05:23;17.70;99.90
30134;DHT22;16946;49.984;10.672;2023-09-18T01:05:54;17.70;99.90
30134;DHT22;16946;49.984;10.672;2023-09-18T01:06:25;17.70;99.90
30134;DHT22;16946;49.984;10.672;2023-09-18T01:07:01;17.70;99.90
30134;DHT22;16946;49.984;10.672;2023-09-18T01:07:33;17.70;99.90
30134;DHT22;16946;49.984;10.672;2023-09-18T01:08:04;17.80;99.90
30134;DHT22;16946;49.984;10.672;2023-09-18T01:08:35;17.80;99.90
30134;DHT22;16946;49.984;10.672;2023-09-18T01:09:07;17.80;99.90
30134;DHT22;16946;49.984;10.672;2023-09-18T01:09:42;17.80;99.90
30134;DHT22;16946;49.984;10.672;2023-09-18T01:10:14;17.90;99.90
30134;DHT22;16946;49.984;10.672;2023-09-18T01:11:06;17.90;99.90
30134;DHT22;16946;49.984;10.672;2023-09-18T01:11:54;17.90;99.90
30134;DHT22;16946;49.984;10.672;2023-09-18T01:13:12;18.00;99.90
30134;DHT22;16946;49.984;10.672;2023-09-18T01:13:56;18.00;99.90
30134;DHT22;16946;49.984;10.672;2023-09-18T01:14:40;18.00;99.90
30134;DHT22;16946;49.984;10.672;2023-09-18T01:15:35;18.10;99.90
30134;DHT22;16946;49.984;10.672;2023-09-18T01:16:13;18.10;99.90
30134;DHT22;16946;49.984;10.672;2023-09-18T01:16:53;18.10;99.90
30134;DHT22;16946;49.984;10.672;2023-09-18T01:17:25;18.00;99.90
30134;DHT22;16946;49.984;10.672;2023-09-18T01:17:56;18.00;99.90
30134;DHT22;16946;49.984;10.672;2023-09-18T01:18:27;18.00;99.90
30134;DHT22;16946;49.984;10.672;2023-09-18T01:18:57;18.00;99.90
30134;DHT22;16946;49.984;10.672;2023-09-18T01:19:40;18.00;99.90
30134;DHT22;16946;49.984;10.672;2023-09-18T01:20:11;18.00;99.90
30134;DHT22;16946;49.984;10.672;2023-09-18T01:20:44;18.00;99.90
30134;DHT22;16946;49.984;10.672;2023-09-18T01:21:14;18.00;99.90
30134;DHT22;16946;49.984;10.672;2023-09-18T01:21:45;18.10;99.90
30134;DHT22;16946;49.984;10.672;2023-09-18T01:22:17;18.10;99.90
30134;DHT22;16946;49.984;10.672;2023-09-18T01:22:48;18.10;99.90
30134;DHT22;16946;49.984;10.672;2023-09-18T01:23:20;18.10;99.90
30134;DHT22;16946;49.984;10.672;2023-09-18T01:23:50;18.20;99.90
30134;DHT22;16946;49.984;10.672;2023-09-18T01:24:21;18.20;99.90
30134;DHT22;16946;49.984;10.672;2023-09-18T01:24:52;18.10;99.90
30134;DHT22;16946;49.984;10.672;2023-09-18T01:25:22;18.10;99.90
30134;DHT22;16946;49.984;10.672;2023-09-18T01:25:53;18.10;99.90
30134;DHT22;16946;49.984;10.672;2023-09-18T01:26:23;18.10;99.90
30134;DHT22;16946;49.984;10.672;2023-09-18T01:26:54;18.10;99.90
30134;DHT22;16946;49.984;10.672;2023-09-18T01:27:24;18.10;99.90
30134;DHT22;16946;49.984;10.672;2023-09-18T01:27:55;18.10;99.90
30134;DHT22;16946;49.984;10.672;2023-09-18T01:28:26;18.10;99.90
30134;DHT22;16946;49.984;10.672;2023-09-18T01:28:56;18.00;99.90
30134;DHT22;16946;49.984;10.672;2023-09-18T01:29:27;18.00;99.90
30134;DHT22;16946;49.984;10.672;2023-09-18T01:29:57;18.00;99.90
30134;DHT22;16946;49.984;10.672;2023-09-18T01:30:28;17.90;99.90
30134;DHT22;16946;49.984;10.672;2023-09-18T01:30:58;17.80;99.90
30134;DHT22;16946;49.984;10.672;2023-09-18T01:31:29;17.70;99.90
30134;DHT22;16946;49.984;10.672;2023-09-18T01:31:59;17.50;99.90
30134;DHT22;16946;49.984;10.672;2023-09-18T01:32:31;17.30;99.90
30134;DHT22;16946;49.984;10.672;2023-09-18T01:33:03;17.20;99.90
30134;DHT22;16946;49.984;10.672;2023-09-18T01:33:34;17.10;99.90
30134;DHT22;16946;49.984;10.672;2023-09-18T01:34:06;17.00;99.90
30134;DHT22;16946;49.984;10.672;2023-09-18T01:34:45;16.90;99.90
30134;DHT22;16946;49.984;10.672;2023-09-18T01:35:16;16.80;99.90
30134;DHT22;16946;49.984;10.672;2023-09-18T01:35:47;16.70;99.90
30134;DHT22;16946;49.984;10.672;2023-09-18T01:36:19;16.60;99.90
30134;DHT22;16946;49.984;10.672;2023-09-18T01:36:51;16.50;99.90
30134;DHT22;16946;49.984;10.672;2023-09-18T01:37:26;16.40;99.90
30134;DHT22;16946;49.984;10.672;2023-09-18T01:37:59;16.40;99.90
30134;DHT22;16946;49.984;10.672;2023-09-18T01:38:30;16.30;99.90
30134;DHT22;16946;49.984;10.672;2023-09-18T01:39:01;16.30;99.90
30134;DHT22;16946;49.984;10.672;2023-09-18T01:39:32;16.20;99.90
30134;DHT22;16946;49.984;10.672;2023-09-18T01:40:05;16.20;99.90
30134;DHT22;16946;49.984;10.672;2023-09-18T01:40:36;16.10;99.90
30134;DHT22;16946;49.984;10.672;2023-09-18T01:41:08;16.10;99.90
30134;DHT22;16946;49.984;10.672;2023-09-18T01:41:40;16.10;99.90
30134;DHT22;16946;49.984;10.672;2023-09-18T01:42:11;16.00;99.90
30134;DHT22;16946;49.984;10.672;2023-09-18T01:42:42;16.00;99.90
30134;DHT22;16946;49.984;10.672;2023-09-18T01:43:13;16.10;99.90
30134;DHT22;16946;49.984;10.672;2023-09-18T01:43:44;16.20;99.90
30134;DHT22;16946;49.984;10.672;2023-09-18T01:44:14;16.20;99.90
30134;DHT22;16946;49.984;10.672;2023-09-18T01:44:46;16.30;99.90
30134;DHT22;16946;49.984;10.672;2023-09-18T01:45:17;16.30;99.90
30134;DHT22;16946;49.984;10.672;2023-09-18T01:45:48;16.40;99.90
30134;DHT22;16946;49.984;10.672;2023-09-18T01:46:20;16.50;99.90
30134;DHT22;16946;49.984;10.672;2023-09-18T01:46:51;16.60;99.90
30134;DHT22;16946;49.984;10.672;2023-09-18T01:47:22;16.60;99.90
30134;DHT22;16946;49.984;10.672;2023-09-18T01:47:59;16.70;99.90
30134;DHT22;16946;49.984;10.672;2023-09-18T01:48:29;16.90;99.90
30134;DHT22;16946;49.984;10.672;2023-09-18T01:49:00;16.90;99.90
30134;DHT22;16946;49.984;10.672;2023-09-18T01:49:33;17.00;99.90
30134;DHT22;16946;49.984;10.672;2023-09-18T01:50:04;17.10;99.90
30134;DHT22;16946;49.984;10.672;2023-09-18T01:50:36;17.10;99.90
30134;DHT22;16946;49.984;10.672;2023-09-18T01:51:07;17.20;99.90
30134;DHT22;16946;49.984;10.672;2023-09-18T01:51:38;17.20;99.90
30134;DHT22;16946;49.984;10.672;2023-09-18T01:52:09;17.20;99.90
30134;DHT22;16946;49.984;10.672;2023-09-18T01:52:40;17.30;99.90
30134;DHT22;16946;49.984;10.672;2023-09-18T01:53:10;17.30;99.90
30134;DHT22;16946;49.984;10.672;2023-09-18T01:53:41;17.30;99.90
30134;DHT22;16946;49.984;10.672;2023-09-18T01:54:13;17.30;99.90
30134;DHT22;16946;49.984;10.672;2023-09-18T01:54:43;17.30;99.90
30134;DHT22;16946;49.984;10.672;2023-09-18T01:55:14;17.20;99.90
30134;DHT22;16946;49.984;10.672;2023-09-18T01:55:44;17.20;99.90
30134;DHT22;16946;49.984;10.672;2023-09-18T01:56:15;17.20;99.90
30134;DHT22;16946;49.984;10.672;2023-09-18T01:56:45;17.20;99.90
30134;DHT22;16946;49.984;10.672;2023-09-18T01:57:16;17.20;99.90
30134;DHT22;16946;49.984;10.672;2023-09-18T01:57:46;17.10;99.90
30134;DHT22;16946;49.984;10.672;2023-09-18T01:58:17;17.20;99.90
30134;DHT22;16946;49.984;10.672;2023-09-18T01:58:48;17.10;99.90
30134;DHT22;16946;49.984;10.672;2023-09-18T01:59:19;17.00;99.90
30134;DHT22;16946;49.984;10.672;2023-09-18T01:59:50;16.90;99.90
30134;DHT22;16946;49.984;10.672;2023-09-18T02:00:20;16.80;99.90
30134;DHT22;16946;49.984;10.672;2023-09-18T02:00:51;16.70;99.90
30134;DHT22;16946;49.984;10.672;2023-09-18T02:01:22;16.70;99.90
30134;DHT22;16946;49.984;10.672;2023-09-18T02:01:53;16.70;99.90
30134;DHT22;16946;49.984;10.672;2023-09-18T02:02:27;16.70;99.90
30134;DHT22;16946;49.984;10.672;2023-09-18T02:02:58;16.80;99.90
30134;DHT22;16946;49.984;10.672;2023-09-18T02:03:28;16.80;99.90
30134;DHT22;16946;49.984;10.672;2023-09-18T02:03:59;16.80;99.90
30134;DHT22;16946;49.984;10.672;2023-09-18T02:04:29;16.80;99.90
30134;DHT22;16946;49.984;10.672;2023-09-18T02:05:00;16.80;99.90
30134;DHT22;16946;49.984;10.672;2023-09-18T02:05:31;16.80;99.90
30134;DHT22;16946;49.984;10.672;2023-09-18T02:06:02;16.90;99.90
30134;DHT22;16946;49.984;10.672;2023-09-18T02:06:33;16.90;99.90
30134;DHT22;16946;49.984;10.672;2023-09-18T02:07:05;17.00;99.90
30134;DHT22;16946;49.984;10.672;2023-09-18T02:07:35;17.00;99.90
30134;DHT22;16946;49.984;10.672;2023-09-18T02:08:06;17.10;99.90
30134;DHT22;16946;49.984;10.672;2023-09-18T02:08:36;17.10;99.90
30134;DHT22;16946;49.984;10.672;2023-09-18T02:09:07;17.20;99.90
30134;DHT22;16946;49.984;10.672;2023-09-18T02:09:39;17.20;99.90
30134;DHT22;16946;49.984;10.672;2023-09-18T02:10:09;17.20;99.90
30134;DHT22;16946;49.984;10.672;2023-09-18T02:10:43;17.20;99.90
30134;DHT22;16946;49.984;10.672;2023-09-18T02:11:13;17.20;99.90
30134;DHT22;16946;49.984;10.672;2023-09-18T02:11:46;17.20;99.90
30134;DHT22;16946;49.984;10.672;2023-09-18T02:12:16;17.20;99.90
30134;DHT22;16946;49.984;10.672;2023-09-18T02:12:48;17.30;99.90
30134;DHT22;16946;49.984;10.672;2023-09-18T02:13:18;17.30;99.90
30134;DHT22;16946;49.984;10.672;2023-09-18T02:13:49;17.30;99.90
30134;DHT22;16946;49.984;10.672;2023-09-18T02:14:19;17.30;99.90
30134;DHT22;16946;49.984;10.672;2023-09-18T02:14:50;17.20;99.90
30134;DHT22;16946;49.984;10.672;2023-09-18T02:15:21;17.10;99.90
30134;DHT22;16946;49.984;10.672;2023-09-18T02:15:52;17.00;99.90
30134;DHT22;16946;49.984;10.672;2023-09-18T02:16:23;16.90;99.90
30134;DHT22;16946;49.984;10.672;2023-09-18T02:16:54;16.80;99.90
30134;DHT22;16946;49.984;10.672;2023-09-18T02:17:24;16.60;99.90
30134;DHT22;16946;49.984;10.672;2023-09-18T02:17:55;16.50;99.90
30134;DHT22;16946;49.984;10.672;2023-09-18T02:18:25;16.50;99.90
30134;DHT22;16946;49.984;10.672;2023-09-18T02:18:56;16.40;99.90
30134;DHT22;16946;49.984;10.672;2023-09-18T02:19:27;16.40;99.90
30134;DHT22;16946;49.984;10.672;2023-09-18T02:19:57;16.40;99.90
30134;DHT22;16946;49.984;10.672;2023-09-18T02:20:28;16.40;99.90
30134;DHT22;16946;49.984;10.672;2023-09-18T02:20:58;16.40;99.90
30134;DHT22;16946;49.984;10.672;2023-09-18T02:21:29;16.40;99.90
30134;DHT22;16946;49.984;10.672;2023-09-18T02:22:00;16.40;99.90
30134;DHT22;16946;49.984;10.672;2023-09-18T02:22:33;16.40;99.90
30134;DHT22;16946;49.984;10.672;2023-09-18T02:23:04;16.60;99.90
30134;DHT22;16946;49.984;10.672;2023-09-18T02:23:34;16.50;99.90
30134;DHT22;16946;49.984;10.672;2023-09-18T02:24:06;16.70;99.90
30134;DHT22;16946;49.984;10.672;2023-09-18T02:24:37;16.70;99.90
30134;DHT22;16946;49.984;10.672;2023-09-18T02:25:08;16.80;99.90
30134;DHT22;16946;49.984;10.672;2023-09-18T02:25:39;16.90;99.90
30134;DHT22;16946;49.984;10.672;2023-09-18T02:26:10;16.80;99.90
30134;DHT22;16946;49.984;10.672;2023-09-18T02:26:41;16.80;99.90
30134;DHT22;16946;49.984;10.672;2023-09-18T02:27:11;16.90;99.90
30134;DHT22;16946;49.984;10.672;2023-09-18T02:27:42;16.90;99.90
30134;DHT22;16946;49.984;10.672;2023-09-18T02:28:13;17.00;99.90
30134;DHT22;16946;49.984;10.672;2023-09-18T02:28:43;17.10;99.90
30134;DHT22;16946;49.984;10.672;2023-09-18T02:29:14;17.10;99.90
30134;DHT22;16946;49.984;10.672;2023-09-18T02:29:45;17.10;99.90
30134;DHT22;16946;49.984;10.672;2023-09-18T02:30:15;17.00;99.90
30134;DHT22;16946;49.984;10.672;2023-09-18T02:30:46;16.90;99.90
30134;DHT22;16946;49.984;10.672;2023-09-18T02:31:17;16.90;99.90
30134;DHT22;16946;49.984;10.672;2023-09-18T02:31:47;16.90;99.90
30134;DHT22;16946;49.984;10.672;2023-09-18T02:32:18;17.00;99.90
30134;DHT22;16946;49.984;10.672;2023-09-18T02:32:49;16.90;99.90
30134;DHT22;16946;49.984;10.672;2023-09-18T02:33:20;17.00;99.90
30134;DHT22;16946;49.984;10.672;2023-09-18T02:33:50;17.00;99.90
30134;DHT22;16946;49.984;10.672;2023-09-18T02:34:21;17.00;99.90
30134;DHT22;16946;49.984;10.672;2023-09-18T02:34:51;16.90;99.90
30134;DHT22;16946;49.984;10.672;2023-09-18T02:35:22;16.90;99.90
30134;DHT22;16946;49.984;10.672;2023-09-18T02:35:52;16.90;99.90
30134;DHT22;16946;49.984;10.672;2023-09-18T02:36:23;16.80;99.90
30134;DHT22;16946;49.984;10.672;2023-09-18T02:36:53;16.80;99.90
30134;DHT22;16946;49.984;10.672;2023-09-18T02:37:24;16.80;99.90
30134;DHT22;16946;49.984;10.672;2023-09-18T02:37:54;16.70;99.90
30134;DHT22;16946;49.984;10.672;2023-09-18T02:38:26;16.60;99.90
30134;DHT22;16946;49.984;10.672;2023-09-18T02:38:56;16.60;99.90
30134;DHT22;16946;49.984;10.672;2023-09-18T02:39:27;16.50;99.90
30134;DHT22;16946;49.984;10.672;2023-09-18T02:39:57;16.50;99.90
30134;DHT22;16946;49.984;10.672;2023-09-18T02:40:28;16.50;99.90
30134;DHT22;16946;49.984;10.672;2023-09-18T02:40:59;16.60;99.90
30134;DHT22;16946;49.984;10.672;2023-09-18T02:41:29;16.60;99.90
30134;DHT22;16946;49.984;10.672;2023-09-18T02:42:00;16.60;99.90
30134;DHT22;16946;49.984;10.672;2023-09-18T02:42:30;16.60;99.90
30134;DHT22;16946;49.984;10.672;2023-09-18T02:43:01;16.50;99.90
30134;DHT22;16946;49.984;10.672;2023-09-18T02:43:32;16.50;99.90
30134;DHT22;16946;49.984;10.672;2023-09-18T02:44:03;16.50;99.90
30134;DHT22;16946;49.984;10.672;2023-09-18T02:44:34;16.60;99.90
30134;DHT22;16946;49.984;10.672;2023-09-18T02:45:05;16.70;99.90
30134;DHT22;16946;49.984;10.672;2023-09-18T02:45:36;16.80;99.90
30134;DHT22;16946;49.984;10.672;2023-09-18T02:46:08;16.80;99.90
30134;DHT22;16946;49.984;10.672;2023-09-18T02:46:39;16.90;99.90
30134;DHT22;16946;49.984;10.672;2023-09-18T02:47:10;16.90;99.90
30134;DHT22;16946;49.984;10.672;2023-09-18T02:47:41;17.00;99.90
30134;DHT22;16946;49.984;10.672;2023-09-18T02:48:12;17.00;99.90
30134;DHT22;16946;49.984;10.672;2023-09-18T02:48:43;17.10;99.90
30134;DHT22;16946;49.984;10.672;2023-09-18T02:49:13;17.10;99.90
30134;DHT22;16946;49.984;10.672;2023-09-18T02:49:44;17.10;99.90
30134;DHT22;16946;49.984;10.672;2023-09-18T02:50:14;17.20;99.90
30134;DHT22;16946;49.984;10.672;2023-09-18T02:50:45;17.20;99.90
30134;DHT22;16946;49.984;10.672;2023-09-18T02:51:16;17.20;99.90
30134;DHT22;16946;49.984;10.672;2023-09-18T02:51:46;17.20;99.90
30134;DHT22;16946;49.984;10.672;2023-09-18T02:52:17;17.20;99.90
30134;DHT22;16946;49.984;10.672;2023-09-18T02:52:48;17.10;99.90
30134;DHT22;16946;49.984;10.672;2023-09-18T02:53:21;17.10;99.90
30134;DHT22;16946;49.984;10.672;2023-09-18T02:53:52;17.10;99.90
30134;DHT22;16946;49.984;10.672;2023-09-18T02:54:23;17.20;99.90
30134;DHT22;16946;49.984;10.672;2023-09-18T02:54:53;17.20;99.90
30134;DHT22;16946;49.984;10.672;2023-09-18T02:55:24;17.20;99.90
30134;DHT22;16946;49.984;10.672;2023-09-18T02:55:56;17.20;99.90
30134;DHT22;16946;49.984;10.672;2023-09-18T02:56:26;17.20;99.90
30134;DHT22;16946;49.984;10.672;2023-09-18T02:56:57;17.10;99.90
30134;DHT22;16946;49.984;10.672;2023-09-18T02:57:27;17.10;99.90
30134;DHT22;16946;49.984;10.672;2023-09-18T02:57:58;17.10;99.90
30134;DHT22;16946;49.984;10.672;2023-09-18T02:58:29;17.20;99.90
30134;DHT22;16946;49.984;10.672;2023-09-18T02:59:00;17.20;99.90
30134;DHT22;16946;49.984;10.672;2023-09-18T02:59:31;17.20;99.90
30134;DHT22;16946;49.984;10.672;2023-09-18T03:00:02;17.20;99.90
30134;DHT22;16946;49.984;10.672;2023-09-18T03:00:33;17.20;99.90
30134;DHT22;16946;49.984;10.672;2023-09-18T03:01:06;17.20;99.90
30134;DHT22;16946;49.984;10.672;2023-09-18T03:01:36;17.20;99.90
30134;DHT22;16946;49.984;10.672;2023-09-18T03:02:07;17.10;99.90
30134;DHT22;16946;49.984;10.672;2023-09-18T03:02:38;17.00;99.90
30134;DHT22;16946;49.984;10.672;2023-09-18T03:03:08;16.80;99.90
30134;DHT22;16946;49.984;10.672;2023-09-18T03:03:39;16.70;99.90
30134;DHT22;16946;49.984;10.672;2023-09-18T03:04:12;16.60;99.90
30134;DHT22;16946;49.984;10.672;2023-09-18T03:04:42;16.40;99.90
30134;DHT22;16946;49.984;10.672;2023-09-18T03:05:13;16.30;99.90
30134;DHT22;16946;49.984;10.672;2023-09-18T03:05:44;16.20;99.90
30134;DHT22;16946;49.984;10.672;2023-09-18T03:06:14;16.10;99.90
30134;DHT22;16946;49.984;10.672;2023-09-18T03:06:45;16.10;99.90
30134;DHT22;16946;49.984;10.672;2023-09-18T03:07:16;16.00;99.90
30134;DHT22;16946;49.984;10.672;2023-09-18T03:07:47;16.00;99.90
30134;DHT22;16946;49.984;10.672;2023-09-18T03:08:18;16.00;99.90
30134;DHT22;16946;49.984;10.672;2023-09-18T03:08:48;16.00;99.90
30134;DHT22;16946;49.984;10.672;2023-09-18T03:09:19;16.10;99.90
30134;DHT22;16946;49.984;10.672;2023-09-18T03:09:49;16.10;99.90
30134;DHT22;16946;49.984;10.672;2023-09-18T03:10:20;16.10;99.90
30134;DHT22;16946;49.984;10.672;2023-09-18T03:10:50;16.10;99.90
30134;DHT22;16946;49.984;10.672;2023-09-18T03:11:21;16.00;99.90
30134;DHT22;16946;49.984;10.672;2023-09-18T03:11:51;16.00;99.90
30134;DHT22;16946;49.984;10.672;2023-09-18T03:12:22;16.10;99.90
30134;DHT22;16946;49.984;10.672;2023-09-18T03:12:53;16.10;99.90
30134;DHT22;16946;49.984;10.672;2023-09-18T03:13:26;16.10;99.90
30134;DHT22;16946;49.984;10.672;2023-09-18T03:13:57;16.00;99.90
30134;DHT22;16946;49.984;10.672;2023-09-18T03:14:27;16.00;99.90
30134;DHT22;16946;49.984;10.672;2023-09-18T03:14:58;16.00;99.90
30134;DHT22;16946;49.984;10.672;2023-09-18T03:15:29;16.00;99.90
30134;DHT22;16946;49.984;10.672;2023-09-18T03:15:59;15.90;99.90